Time;durP1;ratioP1;P1;durP2;ratioP2;P2;SDS_P1;SDS_P2;PMS_P1;PMS_P2;Temp;Humidity;BMP_temperature;BMP_pressure;BME280_temperature;BME280_humidity;BME280_pressure;Samples;Min_cycle;Max_cycle;Signal;HPM_P1;HPM_P2
2023/05/27 00:01:20;;;;;;;13.77;10.55;;;;;;;12.29;100.00;93117.53;5047569;28;20048;-72
2023/05/27 00:03:47;;;;;;;14.27;10.65;;;;;;;12.41;100.00;93120.16;5033167;28;20056;-72
2023/05/27 00:06:14;;;;;;;12.95;9.95;;;;;;;12.46;100.00;93119.47;5045198;28;20044;-71
2023/05/27 00:08:40;;;;;;;12.55;9.32;;;;;;;12.56;100.00;93114.53;5047316;28;20062;-72
2023/05/27 00:11:08;;;;;;;10.32;8.65;;;;;;;12.62;100.00;93118.81;5047237;28;20052;-71
2023/05/27 00:13:36;;;;;;;10.63;8.80;;;;;;;12.67;100.00;93113.75;5047596;28;20045;-72
2023/05/27 00:16:03;;;;;;;10.82;7.57;;;;;;;12.70;100.00;93105.56;5046785;28;20565;-71
2023/05/27 00:18:32;;;;;;;11.25;8.80;;;;;;;12.66;100.00;93106.25;5036802;28;20046;-71
2023/05/27 00:20:59;;;;;;;10.75;8.98;;;;;;;12.47;100.00;93111.53;5031457;28;20060;-71
2023/05/27 00:23:26;;;;;;;12.35;9.15;;;;;;;12.44;100.00;93119.69;5046672;28;20049;-71
2023/05/27 00:25:53;;;;;;;13.35;9.55;;;;;;;12.48;100.00;93140.63;5046849;28;20048;-72
2023/05/27 00:28:19;;;;;;;11.20;9.88;;;;;;;12.51;100.00;93140.97;5047189;28;20127;-71
2023/05/27 00:30:48;;;;;;;10.43;9.00;;;;;;;12.64;100.00;93134.81;5046267;28;20049;-71
2023/05/27 00:33:14;;;;;;;12.20;9.77;;;;;;;12.69;100.00;93132.34;5046733;28;20091;-71
2023/05/27 00:35:41;;;;;;;11.18;9.27;;;;;;;12.83;100.00;93116.66;5046812;28;20498;-71
2023/05/27 00:38:08;;;;;;;10.75;8.93;;;;;;;12.88;100.00;93119.38;5046955;28;20049;-71
2023/05/27 00:40:35;;;;;;;13.85;11.38;;;;;;;12.92;100.00;93109.38;5046801;28;20115;-72
2023/05/27 00:43:02;;;;;;;13.73;12.13;;;;;;;12.89;100.00;93105.47;5046951;28;20108;-71
2023/05/27 00:45:30;;;;;;;14.50;12.55;;;;;;;12.93;100.00;93104.00;5046122;28;20052;-71
2023/05/27 00:47:58;;;;;;;13.88;12.43;;;;;;;12.96;100.00;93105.31;5046857;28;20139;-71
2023/05/27 00:50:26;;;;;;;12.55;10.40;;;;;;;12.88;100.00;93100.53;5046478;28;20045;-71
2023/05/27 00:52:55;;;;;;;11.18;10.05;;;;;;;12.83;100.00;93096.81;5046768;28;20075;-71
2023/05/27 00:55:22;;;;;;;10.73;8.50;;;;;;;12.97;100.00;93096.59;5047026;28;20052;-71
2023/05/27 00:57:49;;;;;;;8.98;7.55;;;;;;;12.90;100.00;93088.97;5047007;28;20130;-71
2023/05/27 01:00:17;;;;;;;7.35;5.28;;;;;;;13.03;100.00;93093.09;5046854;28;20045;-71
2023/05/27 01:02:44;;;;;;;7.38;4.18;;;;;;;12.98;100.00;93102.50;5046669;28;20805;-71
2023/05/27 01:05:15;;;;;;;4.47;2.90;;;;;;;12.98;100.00;93097.34;5047095;28;20425;-71
2023/05/27 01:08:00;;;;;;;3.70;2.63;;;;;;;13.01;100.00;93109.81;5047010;28;20064;-71
2023/05/27 01:10:33;;;;;;;3.08;2.50;;;;;;;12.98;100.00;93094.78;5047008;28;20059;-71
2023/05/27 01:13:02;;;;;;;3.35;2.20;;;;;;;12.95;100.00;93099.38;5046663;28;20045;-71
2023/05/27 01:15:32;;;;;;;3.28;1.80;;;;;;;12.96;100.00;93102.72;5046814;28;20045;-71
2023/05/27 01:18:04;;;;;;;2.75;2.00;;;;;;;12.92;100.00;93105.00;5043303;28;20050;-71
2023/05/27 01:20:33;;;;;;;3.65;2.05;;;;;;;12.95;100.00;93111.47;5046724;28;20092;-71
2023/05/27 01:23:03;;;;;;;2.83;2.13;;;;;;;12.97;100.00;93104.31;5046457;28;20174;-71
2023/05/27 01:25:30;;;;;;;3.22;2.20;;;;;;;13.03;100.00;93105.19;5046964;28;20053;-71
2023/05/27 01:27:57;;;;;;;4.93;2.75;;;;;;;13.08;100.00;93095.78;5045956;28;20052;-71
2023/05/27 01:30:24;;;;;;;3.33;2.65;;;;;;;13.09;100.00;93099.13;5049232;28;20068;-71
2023/05/27 01:32:56;;;;;;;3.88;2.80;;;;;;;13.15;100.00;93080.16;5043246;28;20106;-71
2023/05/27 01:35:28;;;;;;;5.45;3.55;;;;;;;13.20;100.00;93082.84;5050526;28;20060;-71
2023/05/27 01:38:00;;;;;;;5.03;3.83;;;;;;;13.23;100.00;93089.34;5050017;28;20086;-71
2023/05/27 01:40:29;;;;;;;5.03;3.88;;;;;;;13.24;100.00;93072.84;5049826;28;20044;-71
2023/05/27 01:42:57;;;;;;;4.28;3.17;;;;;;;13.27;100.00;93085.31;5049992;28;20060;-70
2023/05/27 01:45:25;;;;;;;4.82;3.50;;;;;;;13.32;100.00;93085.41;5049682;28;20060;-70
2023/05/27 01:47:52;;;;;;;4.68;2.70;;;;;;;13.27;100.00;93081.94;5050882;28;20049;-70
2023/05/27 01:50:19;;;;;;;4.20;3.08;;;;;;;13.36;100.00;93081.34;5049952;28;20056;-70
2023/05/27 01:52:46;;;;;;;4.88;3.30;;;;;;;13.35;100.00;93079.00;5050376;28;20045;-70
2023/05/27 01:55:13;;;;;;;4.18;3.33;;;;;;;13.34;100.00;93080.78;5049855;28;20049;-70
2023/05/27 01:57:41;;;;;;;5.10;3.05;;;;;;;13.30;100.00;93066.00;5050107;28;20053;-70
2023/05/27 02:00:09;;;;;;;4.25;3.20;;;;;;;13.40;100.00;93067.97;5049600;28;20055;-70
2023/05/27 02:02:36;;;;;;;4.30;2.67;;;;;;;13.41;100.00;93069.53;5050192;28;20404;-71
2023/05/27 02:05:03;;;;;;;5.00;3.22;;;;;;;13.45;100.00;93074.03;5049973;28;20470;-70
2023/05/27 02:07:30;;;;;;;4.63;2.78;;;;;;;13.53;100.00;93074.69;5049803;28;20501;-71
2023/05/27 02:09:56;;;;;;;3.70;2.53;;;;;;;13.51;100.00;93079.31;5050016;28;20049;-71
2023/05/27 02:12:23;;;;;;;4.50;2.95;;;;;;;13.48;100.00;93075.41;5049467;28;20537;-71
2023/05/27 02:14:52;;;;;;;3.65;2.70;;;;;;;13.45;100.00;93084.34;5049595;28;20110;-71
2023/05/27 02:17:18;;;;;;;4.38;2.75;;;;;;;13.43;100.00;93090.75;5049554;28;20051;-70
2023/05/27 02:19:45;;;;;;;4.57;2.55;;;;;;;13.39;100.00;93087.84;5043640;28;20049;-71
2023/05/27 02:22:12;;;;;;;8.13;3.10;;;;;;;13.35;100.00;93084.16;5049676;28;20183;-70
2023/05/27 02:24:39;;;;;;;3.55;2.53;;;;;;;13.29;100.00;93088.41;5049487;28;20049;-70
2023/05/27 02:27:06;;;;;;;4.82;2.80;;;;;;;13.31;100.00;93086.41;5049314;28;20539;-70
2023/05/27 02:29:33;;;;;;;4.03;2.60;;;;;;;13.14;100.00;93095.88;5049147;28;20144;-71
2023/05/27 02:32:01;;;;;;;3.65;2.85;;;;;;;13.02;100.00;93086.38;5049443;28;20056;-70
2023/05/27 02:34:28;;;;;;;4.68;2.58;;;;;;;12.95;100.00;93091.66;5049170;28;20124;-70
2023/05/27 02:36:55;;;;;;;5.15;3.20;;;;;;;12.79;100.00;93082.03;5049413;28;20057;-70
2023/05/27 02:39:22;;;;;;;4.47;2.67;;;;;;;12.77;100.00;93090.00;5048696;28;20055;-70
2023/05/27 02:41:48;;;;;;;5.70;3.20;;;;;;;12.58;100.00;93083.41;5048256;28;20057;-71
2023/05/27 02:44:15;;;;;;;4.75;3.25;;;;;;;12.43;100.00;93087.22;5048534;28;20048;-71
2023/05/27 02:46:42;;;;;;;4.22;3.00;;;;;;;12.34;100.00;93083.38;5049136;28;20456;-70
2023/05/27 02:49:10;;;;;;;4.53;3.47;;;;;;;12.38;100.00;93081.94;5048937;28;20492;-71
2023/05/27 02:51:37;;;;;;;4.53;3.72;;;;;;;12.38;100.00;93084.50;5048975;28;20441;-70
2023/05/27 02:54:04;;;;;;;4.45;3.10;;;;;;;12.27;100.00;93078.38;5048179;28;20041;-70
2023/05/27 02:56:30;;;;;;;3.85;2.67;;;;;;;12.37;100.00;93090.69;5048181;28;20049;-71
2023/05/27 02:58:57;;;;;;;4.05;2.80;;;;;;;12.31;100.00;93087.19;5049060;28;20045;-70
2023/05/27 03:01:24;;;;;;;4.00;2.58;;;;;;;12.35;100.00;93090.13;5049000;28;20866;-71
2023/05/27 03:03:51;;;;;;;3.65;2.45;;;;;;;12.34;100.00;93096.25;5048614;28;20052;-71
2023/05/27 03:06:19;;;;;;;4.85;2.40;;;;;;;12.42;100.00;93086.41;5048831;28;20059;-71
2023/05/27 03:08:46;;;;;;;4.40;2.30;;;;;;;12.50;100.00;93087.88;5048095;28;20045;-70
2023/05/27 03:11:13;;;;;;;11.63;4.47;;;;;;;12.61;100.00;93088.91;5048504;28;20429;-70
2023/05/27 03:13:40;;;;;;;6.05;3.08;;;;;;;12.64;100.00;93080.69;5048579;28;20052;-70
2023/05/27 03:16:07;;;;;;;8.38;3.63;;;;;;;12.75;100.00;93088.66;5040915;28;20041;-71
2023/05/27 03:18:34;;;;;;;5.90;3.35;;;;;;;12.88;100.00;93088.44;5044459;28;20049;-71
2023/05/27 03:21:01;;;;;;;5.78;3.28;;;;;;;12.95;100.00;93094.22;5048284;28;20096;-71
2023/05/27 03:23:30;;;;;;;3.85;2.65;;;;;;;12.98;100.00;93098.16;5048118;28;20131;-71
2023/05/27 03:25:57;;;;;;;23.85;7.97;;;;;;;12.93;100.00;93096.28;5047909;28;20056;-71
2023/05/27 03:28:23;;;;;;;6.78;4.00;;;;;;;12.96;100.00;93100.94;5047927;28;20509;-70
2023/05/27 03:30:55;;;;;;;11.80;4.75;;;;;;;12.94;100.00;93089.28;5048400;28;20584;-70
2023/05/27 03:33:22;;;;;;;8.93;4.93;;;;;;;13.04;100.00;93099.81;5048040;28;20525;-71
2023/05/27 03:35:49;;;;;;;11.45;5.03;;;;;;;13.04;100.00;93093.88;5047746;28;20049;-70
2023/05/27 03:38:16;;;;;;;10.48;5.68;;;;;;;13.14;100.00;93093.31;5048100;28;20073;-71
2023/05/27 03:40:44;;;;;;;9.38;4.97;;;;;;;13.18;100.00;93099.56;5045463;28;20449;-70
2023/05/27 03:43:11;;;;;;;11.27;4.70;;;;;;;13.19;100.00;93098.56;5037945;28;20060;-71
2023/05/27 03:45:38;;;;;;;8.88;5.07;;;;;;;13.19;100.00;93098.56;5047237;28;20041;-71
2023/05/27 03:48:04;;;;;;;11.00;5.13;;;;;;;13.19;100.00;93109.66;5047779;28;20044;-71
2023/05/27 03:50:32;;;;;;;5.85;3.72;;;;;;;13.01;100.00;93109.81;5048029;28;20051;-71
2023/05/27 03:52:59;;;;;;;8.73;4.70;;;;;;;12.96;100.00;93100.94;5044974;28;20498;-71
2023/05/27 03:55:26;;;;;;;5.20;3.83;;;;;;;12.88;100.00;93100.53;5043499;28;20037;-71
2023/05/27 03:57:55;;;;;;;8.73;4.47;;;;;;;12.76;100.00;93098.75;5047664;28;20539;-71
2023/05/27 04:00:21;;;;;;;8.07;3.97;;;;;;;12.68;100.00;93094.72;5047195;28;20045;-71
2023/05/27 04:02:48;;;;;;;5.53;4.05;;;;;;;12.63;100.00;93094.59;5047312;28;20053;-71
2023/05/27 04:05:16;;;;;;;7.45;3.67;;;;;;;12.55;100.00;93085.41;5047366;28;20504;-71
2023/05/27 04:07:43;;;;;;;7.10;4.25;;;;;;;12.54;100.00;93086.41;5036187;28;20405;-70
2023/05/27 04:10:11;;;;;;;6.57;4.22;;;;;;;12.58;100.00;93088.56;5044901;28;20543;-71
2023/05/27 04:12:37;;;;;;;7.57;4.10;;;;;;;12.57;100.00;93090.34;5047830;28;20048;-70
2023/05/27 04:15:08;;;;;;;11.05;4.47;;;;;;;12.69;100.00;93098.09;5047298;28;20045;-70
2023/05/27 04:17:35;;;;;;;8.23;4.38;;;;;;;12.83;100.00;93101.97;5044212;28;20052;-70
2023/05/27 04:20:09;;;;;;;11.40;5.60;;;;;;;13.03;100.00;93095.69;5046671;28;20047;-70
2023/05/27 04:22:36;;;;;;;13.20;6.03;;;;;;;13.18;100.00;93094.41;5047314;28;20071;-70
2023/05/27 04:25:02;;;;;;;11.82;5.68;;;;;;;13.31;100.00;93099.31;5047559;28;20059;-70
2023/05/27 04:27:29;;;;;;;8.55;4.90;;;;;;;13.39;100.00;93095.59;5046759;28;20068;-70
2023/05/27 04:29:56;;;;;;;5.45;4.13;;;;;;;13.40;100.00;93104.91;5047358;28;20060;-71
2023/05/27 04:32:27;;;;;;;5.18;3.80;;;;;;;13.48;100.00;93101.97;5047670;28;20099;-71
2023/05/27 04:34:54;;;;;;;8.45;4.38;;;;;;;13.41;100.00;93077.28;5047251;28;20064;-71
2023/05/27 04:37:20;;;;;;;5.53;3.35;;;;;;;13.56;100.00;93110.38;5046422;28;20083;-71
2023/05/27 04:39:47;;;;;;;7.40;3.80;;;;;;;13.54;100.00;93114.97;5047371;28;20049;-71
2023/05/27 04:42:15;;;;;;;5.85;3.45;;;;;;;13.52;100.00;93109.25;5046806;28;20052;-71
2023/05/27 04:44:42;;;;;;;5.93;3.92;;;;;;;13.36;100.00;93112.31;5046773;28;20580;-70
2023/05/27 04:47:09;;;;;;;5.68;3.70;;;;;;;13.38;100.00;93111.28;5046531;28;20045;-70
2023/05/27 04:49:37;;;;;;;9.30;4.32;;;;;;;13.47;100.00;93112.53;5047065;28;20498;-70
2023/05/27 04:52:06;;;;;;;6.20;3.63;;;;;;;13.43;100.00;93114.75;5026478;28;20053;-69
2023/05/27 04:54:33;;;;;;;8.18;4.05;;;;;;;13.52;100.00;93115.19;5026068;28;20045;-70
2023/05/27 04:57:00;;;;;;;6.03;3.60;;;;;;;13.57;100.00;93119.69;5046932;28;20053;-70
2023/05/27 04:59:35;;;;;;;7.68;4.20;;;;;;;13.68;100.00;93116.28;5046483;28;20045;-70
2023/05/27 05:02:10;;;;;;;6.22;4.10;;;;;;;13.60;100.00;93121.78;5046757;28;20045;-70
2023/05/27 05:04:39;;;;;;;8.27;4.07;;;;;;;13.73;100.00;93121.53;5049359;28;20049;-69
2023/05/27 05:07:06;;;;;;;5.13;4.00;;;;;;;13.81;100.00;93106.66;5050364;28;20125;-70
2023/05/27 05:09:33;;;;;;;7.05;4.10;;;;;;;13.93;100.00;93115.13;5051243;28;20079;-70
2023/05/27 05:12:02;;;;;;;5.45;3.17;;;;;;;13.89;100.00;93112.25;5050632;28;20048;-70
2023/05/27 05:14:29;;;;;;;7.00;4.35;;;;;;;13.94;100.00;93105.59;5051157;28;20049;-70
2023/05/27 05:16:56;;;;;;;8.18;4.85;;;;;;;13.95;100.00;93107.16;5050531;28;20047;-70
2023/05/27 05:19:23;;;;;;;8.23;4.70;;;;;;;14.02;100.00;93121.50;5050473;28;20049;-70
2023/05/27 05:21:51;;;;;;;5.75;4.07;;;;;;;14.13;100.00;93117.25;5050594;28;20045;-70
2023/05/27 05:24:17;;;;;;;7.90;3.83;;;;;;;14.26;100.00;93123.16;5050144;28;20045;-70
2023/05/27 05:26:45;;;;;;;9.40;3.58;;;;;;;14.32;100.00;93124.81;5045774;28;20049;-70
2023/05/27 05:29:12;;;;;;;8.10;4.53;;;;;;;14.47;100.00;93118.28;5038921;28;20517;-70
2023/05/27 05:31:39;;;;;;;5.50;3.83;;;;;;;14.43;100.00;93120.56;5050462;28;20052;-70
2023/05/27 05:34:06;;;;;;;8.18;3.90;;;;;;;14.50;100.00;93126.38;5049818;28;20051;-70
2023/05/27 05:36:34;;;;;;;8.43;4.43;;;;;;;14.63;100.00;93121.91;5050305;28;20069;-70
2023/05/27 05:39:02;;;;;;;9.23;4.28;;;;;;;14.79;100.00;93134.06;5050270;28;20045;-70
2023/05/27 05:41:29;;;;;;;5.95;3.40;;;;;;;14.96;100.00;93144.34;5049643;28;20119;-70
2023/05/27 05:43:56;;;;;;;7.60;4.57;;;;;;;15.07;100.00;93134.16;5050082;28;20559;-70
2023/05/27 05:46:23;;;;;;;7.68;4.53;;;;;;;15.23;100.00;93148.09;5049733;28;20041;-71
2023/05/27 05:48:52;;;;;;;5.50;3.88;;;;;;;15.46;100.00;93151.47;5049424;28;20049;-70
2023/05/27 05:51:19;;;;;;;11.05;4.88;;;;;;;15.58;100.00;93156.50;5050136;28;20056;-70
2023/05/27 05:53:46;;;;;;;10.27;5.03;;;;;;;15.69;100.00;93157.41;5049583;28;20050;-71
2023/05/27 05:56:14;;;;;;;8.82;4.18;;;;;;;15.72;100.00;93160.28;5049690;28;20468;-70
2023/05/27 05:58:41;;;;;;;10.57;4.60;;;;;;;15.84;100.00;93160.13;5049719;28;20041;-71
2023/05/27 06:01:07;;;;;;;7.07;3.78;;;;;;;15.83;100.00;93150.81;5049899;28;20041;-71
2023/05/27 06:03:34;;;;;;;8.52;4.55;;;;;;;15.95;100.00;93160.28;5049114;28;20045;-70
2023/05/27 06:06:02;;;;;;;9.25;4.97;;;;;;;15.84;100.00;93157.53;5049710;28;20045;-70
2023/05/27 06:08:28;;;;;;;8.75;5.07;;;;;;;15.65;100.00;93153.72;5049466;28;20144;-70
2023/05/27 06:10:55;;;;;;;12.73;5.97;;;;;;;15.28;100.00;93161.06;5050066;28;20095;-69
2023/05/27 06:13:23;;;;;;;7.25;4.88;;;;;;;15.40;100.00;93162.75;5050000;28;20037;-70
2023/05/27 06:15:50;;;;;;;7.15;5.00;;;;;;;15.22;100.00;93159.44;5048884;28;20053;-70
2023/05/27 06:18:17;;;;;;;7.07;4.35;;;;;;;15.02;100.00;93170.28;5049120;28;20493;-70
2023/05/27 06:20:45;;;;;;;5.97;4.35;;;;;;;15.13;100.00;93159.06;5049604;28;20171;-70
2023/05/27 06:23:11;;;;;;;4.75;3.92;;;;;;;15.00;100.00;93165.34;5049294;28;20056;-70
2023/05/27 06:25:38;;;;;;;5.50;4.40;;;;;;;14.96;100.00;93166.88;5049517;28;20041;-70
2023/05/27 06:28:05;;;;;;;5.38;4.32;;;;;;;14.87;100.00;93163.13;5047618;28;20045;-71
2023/05/27 06:30:34;;;;;;;9.45;5.65;;;;;;;14.82;100.00;93162.00;5049104;28;20057;-71
2023/05/27 06:33:00;;;;;;;7.75;4.85;;;;;;;14.95;100.00;93165.31;5049228;28;20403;-71
2023/05/27 06:35:27;;;;;;;8.45;4.72;;;;;;;14.96;100.00;93170.22;5048971;28;20075;-71
2023/05/27 06:37:54;;;;;;;5.97;4.18;;;;;;;14.99;100.00;93176.72;5049356;28;20045;-71
2023/05/27 06:40:21;;;;;;;4.63;3.83;;;;;;;15.07;100.00;93178.91;5036211;28;20050;-71
2023/05/27 06:42:47;;;;;;;7.43;4.15;;;;;;;15.24;100.00;93175.53;5031814;28;20114;-71
2023/05/27 06:45:14;;;;;;;5.68;4.18;;;;;;;15.40;100.00;93170.50;5049735;28;20041;-71
2023/05/27 06:47:42;;;;;;;6.05;4.45;;;;;;;15.49;100.00;93185.41;5036098;28;20049;-72
2023/05/27 06:50:10;;;;;;;7.18;4.20;;;;;;;15.60;100.00;93188.13;5045932;28;20041;-71
2023/05/27 06:52:37;;;;;;;5.72;4.00;;;;;;;15.82;100.00;93179.53;5049167;28;20123;-72
2023/05/27 06:55:04;;;;;;;5.20;3.70;;;;;;;15.89;100.00;93200.88;5048310;28;20520;-71
2023/05/27 06:57:30;;;;;;;5.30;4.15;;;;;;;15.72;100.00;93204.31;5048690;28;20056;-71
2023/05/27 06:59:57;;;;;;;6.32;4.07;;;;;;;15.77;100.00;93206.16;5048627;28;20037;-71
2023/05/27 07:02:24;;;;;;;6.80;4.28;;;;;;;15.91;100.00;93201.41;5048043;28;20052;-71
2023/05/27 07:04:53;;;;;;;5.13;4.13;;;;;;;15.85;100.00;93190.22;5048535;28;20049;-71
2023/05/27 07:07:20;;;;;;;5.00;3.70;;;;;;;16.10;100.00;93195.94;5048464;28;20048;-71
2023/05/27 07:09:47;;;;;;;6.43;4.13;;;;;;;16.23;100.00;93203.31;5037144;28;20131;-72
2023/05/27 07:12:14;;;;;;;6.60;4.35;;;;;;;16.13;100.00;93192.84;5022214;28;20052;-72
2023/05/27 07:14:41;;;;;;;5.57;3.80;;;;;;;16.19;100.00;93204.06;5048208;28;20436;-72
2023/05/27 07:17:08;;;;;;;5.90;3.63;;;;;;;16.27;100.00;93207.00;5041493;28;20044;-72
2023/05/27 07:19:34;;;;;;;4.57;3.58;;;;;;;16.42;100.00;93208.13;5032738;28;20449;-72
2023/05/27 07:22:02;;;;;;;4.95;3.33;;;;;;;16.34;100.00;93216.38;5048444;28;20433;-72
2023/05/27 07:24:29;;;;;;;4.60;3.33;;;;;;;16.34;100.00;93211.94;5047809;28;20049;-72
2023/05/27 07:26:56;;;;;;;10.50;3.25;;;;;;;16.28;100.00;93216.31;5048488;28;20079;-72
2023/05/27 07:29:23;;;;;;;4.82;3.03;;;;;;;16.10;100.00;93217.44;5047627;28;20122;-72
2023/05/27 07:31:49;;;;;;;5.47;2.90;;;;;;;16.11;100.00;93213.81;5047895;28;20099;-72
2023/05/27 07:34:16;;;;;;;4.07;2.80;;;;;;;16.14;100.00;93218.53;5046963;28;20094;-72
2023/05/27 07:36:43;;;;;;;4.53;3.20;;;;;;;16.25;100.00;93209.03;5045446;28;20190;-73
2023/05/27 07:39:11;;;;;;;4.95;3.38;;;;;;;16.42;100.00;93218.50;5043079;28;20048;-73
2023/05/27 07:41:38;;;;;;;3.55;2.65;;;;;;;16.35;100.00;93221.31;5048032;28;20045;-71
2023/05/27 07:44:04;;;;;;;4.60;3.25;;;;;;;16.46;100.00;93216.19;5047315;28;20048;-72
2023/05/27 07:46:32;;;;;;;5.82;3.28;;;;;;;16.43;100.00;93205.31;5047882;28;20519;-72
2023/05/27 07:48:59;;;;;;;4.30;2.80;;;;;;;16.41;100.00;93214.34;5047797;28;20049;-71
2023/05/27 07:51:25;;;;;;;4.25;3.03;;;;;;;16.38;100.00;93210.44;5047389;28;20048;-72
2023/05/27 07:53:52;;;;;;;5.32;3.28;;;;;;;16.44;100.00;93206.09;5047598;28;20405;-72
2023/05/27 07:56:20;;;;;;;5.88;3.35;;;;;;;16.54;100.00;93216.53;5047629;28;20457;-73
2023/05/27 07:58:47;;;;;;;4.57;2.65;;;;;;;16.50;100.00;93220.66;5047202;28;20044;-72
2023/05/27 08:01:14;;;;;;;4.65;2.90;;;;;;;16.64;100.00;93225.44;5047174;28;20559;-72
2023/05/27 08:03:40;;;;;;;5.45;2.90;;;;;;;16.48;100.00;93207.16;5047240;28;20521;-72
2023/05/27 08:06:08;;;;;;;5.43;2.95;;;;;;;16.37;100.00;93229.63;5047429;28;20044;-72
2023/05/27 08:08:34;;;;;;;5.85;3.25;;;;;;;16.48;100.00;93225.31;5046764;28;20107;-72
2023/05/27 08:11:01;;;;;;;4.78;3.03;;;;;;;16.81;100.00;93222.72;5047833;28;20122;-72
2023/05/27 08:13:29;;;;;;;3.88;3.13;;;;;;;16.74;100.00;93228.13;5046498;28;20045;-72
2023/05/27 08:15:56;;;;;;;4.20;3.17;;;;;;;16.74;100.00;93209.16;5047660;28;20414;-72
2023/05/27 08:18:25;;;;;;;8.07;3.35;;;;;;;17.04;100.00;93234.59;5044565;28;20171;-72
2023/05/27 08:20:52;;;;;;;6.03;3.10;;;;;;;16.95;100.00;93229.03;5046351;28;20056;-72
2023/05/27 08:23:19;;;;;;;6.13;3.05;;;;;;;17.15;100.00;93226.88;5046182;28;20045;-72
2023/05/27 08:25:46;;;;;;;4.95;3.22;;;;;;;17.42;100.00;93226.78;5046382;28;20505;-72
2023/05/27 08:28:12;;;;;;;3.85;2.97;;;;;;;17.41;100.00;93233.00;5046009;28;20513;-72
2023/05/27 08:30:41;;;;;;;4.70;3.35;;;;;;;17.60;100.00;93220.38;5046336;28;20052;-72
2023/05/27 08:33:08;;;;;;;7.15;4.35;;;;;;;17.71;100.00;93231.59;5046233;28;20493;-72
2023/05/27 08:35:35;;;;;;;7.32;3.42;;;;;;;17.50;100.00;93236.69;5046380;28;20041;-72
2023/05/27 08:38:02;;;;;;;6.90;3.42;;;;;;;17.54;100.00;93233.59;5045797;28;20084;-72
2023/05/27 08:40:29;;;;;;;3.97;2.90;;;;;;;17.69;100.00;93230.28;5038719;28;20097;-72
2023/05/27 08:42:56;;;;;;;5.13;2.92;;;;;;;17.42;100.00;93228.59;5038053;28;20053;-73
2023/05/27 08:45:23;;;;;;;6.85;3.45;;;;;;;17.77;100.00;93227.97;5046572;28;20049;-72
2023/05/27 08:47:52;;;;;;;5.50;3.42;;;;;;;18.19;100.00;93229.97;5047092;28;20049;-72
2023/05/27 08:50:19;;;;;;;4.75;3.13;;;;;;;18.37;100.00;93213.09;5046959;28;20045;-72
2023/05/27 08:52:47;;;;;;;4.38;3.10;;;;;;;18.06;100.00;93236.41;5047046;28;20076;-72
2023/05/27 08:55:17;;;;;;;4.82;3.17;;;;;;;18.12;100.00;93231.00;5046835;28;21035;-73
2023/05/27 08:57:47;;;;;;;6.13;3.72;;;;;;;17.95;100.00;93231.16;5046649;28;20081;-72
2023/05/27 09:00:14;;;;;;;5.10;3.22;;;;;;;18.41;100.00;93242.75;5046460;28;20135;-73
2023/05/27 09:02:42;;;;;;;5.68;3.13;;;;;;;18.40;100.00;93233.38;5046717;28;20304;-73
2023/05/27 09:05:12;;;;;;;5.05;3.20;;;;;;;18.45;100.00;93240.41;5046920;28;20059;-73
2023/05/27 09:07:39;;;;;;;4.78;2.97;;;;;;;18.45;98.22;93225.59;5047029;28;20041;-72
2023/05/27 09:10:07;;;;;;;4.93;3.13;;;;;;;19.27;99.36;93221.44;5034413;28;20047;-72
2023/05/27 09:12:35;;;;;;;4.85;2.90;;;;;;;19.17;95.29;93224.06;5038026;28;20053;-73
2023/05/27 09:15:03;;;;;;;4.60;3.30;;;;;;;18.99;94.88;93214.94;5044307;28;20529;-73
2023/05/27 09:17:31;;;;;;;5.60;4.10;;;;;;;18.92;95.89;93221.19;5042864;28;20141;-73
2023/05/27 09:19:58;;;;;;;7.03;3.92;;;;;;;18.81;96.16;93223.03;5040525;28;20052;-73
2023/05/27 09:22:31;;;;;;;4.22;3.17;;;;;;;19.26;89.80;93219.88;5046511;28;20049;-73
2023/05/27 09:24:58;;;;;;;6.22;3.88;;;;;;;19.44;94.76;93205.50;5046663;28;20054;-73
2023/05/27 09:27:26;;;;;;;4.97;3.33;;;;;;;19.18;91.48;93204.78;5045793;28;20041;-73
2023/05/27 09:29:54;;;;;;;7.20;3.40;;;;;;;19.44;92.26;93186.50;5033388;28;20096;-73
2023/05/27 09:32:40;;;;;;;6.95;3.42;;;;;;;19.38;95.51;93184.97;5019955;28;20130;-73
2023/05/27 09:35:08;;;;;;;5.10;3.30;;;;;;;19.45;93.06;93194.03;5046834;28;20136;-73
2023/05/27 09:37:36;;;;;;;6.10;3.47;;;;;;;19.56;95.42;93179.16;5046626;28;20053;-73
2023/05/27 09:40:07;;;;;;;4.90;3.47;;;;;;;19.68;92.81;93189.28;5046441;28;20182;-72
2023/05/27 09:42:42;;;;;;;10.00;3.55;;;;;;;20.12;90.49;93190.41;5046682;28;20049;-71
2023/05/27 09:45:12;;;;;;;6.50;4.07;;;;;;;19.97;92.14;93183.44;5046165;28;20498;-71
2023/05/27 09:47:40;;;;;;;5.15;3.40;;;;;;;20.06;94.68;93186.28;5046355;28;20135;-71
2023/05/27 09:50:10;;;;;;;5.00;3.45;;;;;;;20.05;88.90;93197.75;5046673;28;20448;-71
2023/05/27 09:52:41;;;;;;;8.70;3.55;;;;;;;19.47;91.45;93188.56;5023916;28;20045;-71
2023/05/27 09:55:09;;;;;;;5.68;3.47;;;;;;;19.38;92.36;93188.34;5049724;28;20122;-71
2023/05/27 09:57:36;;;;;;;6.72;3.65;;;;;;;19.27;96.02;93179.78;5050040;28;20045;-71
2023/05/27 10:00:09;;;;;;;5.60;3.67;;;;;;;19.65;89.38;93199.44;5049711;28;20713;-71
2023/05/27 10:02:37;;;;;;;4.70;3.42;;;;;;;19.23;90.92;93189.94;5043660;28;20049;-73
2023/05/27 10:05:07;;;;;;;4.20;3.00;;;;;;;19.00;94.04;93186.03;5048901;28;20330;-73
2023/05/27 10:07:37;;;;;;;6.35;3.58;;;;;;;19.15;89.87;93195.69;5049611;28;20227;-73
2023/05/27 10:10:08;;;;;;;4.60;3.50;;;;;;;19.42;92.48;93188.56;5049128;28;20049;-71
2023/05/27 10:12:35;;;;;;;5.28;3.85;;;;;;;19.59;93.36;93183.06;5033207;28;20089;-71
2023/05/27 10:15:02;;;;;;;9.45;4.55;;;;;;;19.42;94.39;93180.75;5050032;28;20504;-71
2023/05/27 10:17:29;;;;;;;9.55;4.55;;;;;;;19.13;95.00;93174.34;5047963;28;20425;-71
2023/05/27 10:19:57;;;;;;;8.52;4.55;;;;;;;19.25;92.11;93171.44;5038416;28;20940;-71
2023/05/27 10:22:24;;;;;;;8.57;5.15;;;;;;;19.05;93.84;93162.63;5048955;28;20565;-72
2023/05/27 10:24:53;;;;;;;9.82;5.28;;;;;;;18.87;93.58;93166.53;5049135;28;20072;-71
2023/05/27 10:27:22;;;;;;;6.68;4.25;;;;;;;18.80;94.53;93159.00;5048442;28;20041;-71
2023/05/27 10:29:58;;;;;;;18.65;7.63;;;;;;;18.52;96.16;93157.72;5049067;28;20590;-71
2023/05/27 10:32:25;;;;;;;20.77;8.00;;;;;;;18.55;97.00;93159.78;5048797;28;20056;-72
2023/05/27 10:34:52;;;;;;;24.08;9.60;;;;;;;18.76;96.76;93167.59;5049166;28;20060;-71
2023/05/27 10:37:22;;;;;;;7.50;4.30;;;;;;;18.61;95.90;93148.34;5048615;28;20051;-71
2023/05/27 10:39:56;;;;;;;9.75;5.22;;;;;;;18.66;96.94;93170.97;5048627;28;20051;-71
2023/05/27 10:42:24;;;;;;;14.70;6.57;;;;;;;18.51;97.31;93162.13;5049252;28;20049;-71
2023/05/27 10:45:05;;;;;;;12.07;6.57;;;;;;;18.16;97.75;93154.03;5048917;28;20114;-71
2023/05/27 10:47:35;;;;;;;8.88;4.95;;;;;;;18.37;98.06;93159.25;5048475;28;20052;-70
2023/05/27 10:50:11;;;;;;;7.65;4.50;;;;;;;18.47;99.70;93150.69;5049221;28;20138;-71
2023/05/27 10:52:39;;;;;;;7.85;4.43;;;;;;;18.57;98.46;93160.31;5022505;28;20073;-71
2023/05/27 10:55:07;;;;;;;16.83;7.07;;;;;;;18.40;96.24;93150.16;5048883;28;20394;-71
2023/05/27 10:57:35;;;;;;;9.30;5.20;;;;;;;18.29;100.00;93154.59;5045002;28;20038;-70
2023/05/27 11:00:07;;;;;;;7.32;4.82;;;;;;;18.33;100.00;93141.84;5042790;28;20045;-71
2023/05/27 11:02:35;;;;;;;7.65;4.75;;;;;;;18.57;100.00;93144.72;5048110;28;20127;-71
2023/05/27 11:05:03;;;;;;;11.10;5.72;;;;;;;18.91;99.68;93148.56;5048204;28;20056;-71
2023/05/27 11:07:30;;;;;;;6.95;4.20;;;;;;;18.93;99.05;93151.72;5048228;28;20060;-71
2023/05/27 11:09:56;;;;;;;7.57;4.15;;;;;;;19.11;97.11;93136.59;5048256;28;20076;-71
2023/05/27 11:12:25;;;;;;;7.47;3.92;;;;;;;19.23;93.76;93143.06;5048479;28;20442;-71
2023/05/27 11:14:54;;;;;;;5.07;3.55;;;;;;;19.32;91.26;93158.94;5048347;28;20565;-71
2023/05/27 11:17:22;;;;;;;5.72;4.10;;;;;;;19.47;91.30;93137.25;5047812;28;20150;-71
2023/05/27 11:19:49;;;;;;;5.85;3.75;;;;;;;19.72;91.36;93138.19;5045136;28;20040;-71
2023/05/27 11:22:17;;;;;;;6.07;3.95;;;;;;;19.76;92.85;93136.59;5048334;28;20045;-71
2023/05/27 11:24:55;;;;;;;6.00;3.60;;;;;;;19.94;88.42;93136.25;5048164;28;20056;-71
2023/05/27 11:27:22;;;;;;;9.00;4.32;;;;;;;20.21;87.18;93142.88;5037674;28;20453;-71